createdAt,value
2022-10-30T00:01:48.682Z,100747.44
2022-10-30T00:04:18.539Z,100754.59
2022-10-30T00:06:48.141Z,100750.47
2022-10-30T00:09:17.864Z,100756.19
2022-10-30T00:11:49.992Z,100747.28
2022-10-30T00:14:19.521Z,100753.41
2022-10-30T00:16:49.057Z,100753.53
2022-10-30T00:19:18.986Z,100763.25
2022-10-30T00:21:48.538Z,100755.28
2022-10-30T00:24:18.071Z,100754.13
2022-10-30T00:26:50.209Z,100758.50
2022-10-30T00:29:19.979Z,100761.63
2022-10-30T00:31:49.633Z,100761.13
2022-10-30T00:34:19.254Z,100753.09
2022-10-30T00:36:48.934Z,100757.25
2022-10-30T00:39:19.281Z,100745.81
2022-10-30T00:41:51.574Z,100750.16
2022-10-30T00:44:39.802Z,100749.31
2022-10-30T00:47:14.132Z,100749.56
2022-10-30T00:49:51.619Z,100743.59
2022-10-30T00:52:22.508Z,100758.19
2022-10-30T00:54:52.546Z,100748.47
2022-10-30T00:57:24.735Z,100749.06
2022-10-30T00:59:54.401Z,100750.50
2022-10-30T01:02:24.548Z,100748.41
2022-10-30T01:04:54.862Z,100749.50
2022-10-30T01:07:24.522Z,100746.19
2022-10-30T01:09:54.079Z,100754.19
2022-10-30T01:12:26.820Z,100759.16
2022-10-30T01:14:59.250Z,100767.50
2022-10-30T01:17:40.468Z,100745.00
2022-10-30T01:20:20.913Z,100753.78
2022-10-30T01:23:01.810Z,100768.28
2022-10-30T01:25:41.705Z,100768.97
2022-10-30T01:28:23.948Z,100766.13
2022-10-30T01:31:04.805Z,100768.25
2022-10-30T01:33:40.031Z,100759.97
2022-10-30T01:36:14.609Z,100760.31
2022-10-30T01:38:47.477Z,100765.97
2022-10-30T01:41:17.748Z,100763.84
2022-10-30T01:43:55.620Z,100761.00
2022-10-30T01:46:50.782Z,100758.53
2022-10-30T01:49:45.697Z,100760.56
2022-10-30T01:52:19.690Z,100760.03
2022-10-30T01:54:55.312Z,100763.88
2022-10-30T01:57:34.538Z,100759.63
2022-10-30T02:00:10.385Z,100762.47
2022-10-30T02:02:43.700Z,100757.25
2022-10-30T02:05:22.369Z,100758.84
2022-10-30T02:07:51.937Z,100748.72
2022-10-30T02:10:21.548Z,100757.25
2022-10-30T02:12:51.995Z,100752.88
2022-10-30T02:15:24.182Z,100756.41
2022-10-30T02:17:53.896Z,100746.63
2022-10-30T02:20:26.576Z,100742.88
2022-10-30T02:22:59.059Z,100753.94
2022-10-30T02:25:34.030Z,100754.69
2022-10-30T02:28:03.672Z,100748.59
2022-10-30T02:30:34.239Z,100754.69
2022-10-30T02:33:04.841Z,100752.47
2022-10-30T02:35:37.022Z,100749.25
2022-10-30T02:38:06.631Z,100750.84
2022-10-30T02:40:36.275Z,100754.16
2022-10-30T02:43:05.818Z,100753.19
2022-10-30T02:45:35.433Z,100764.41
2022-10-30T02:48:05.156Z,100759.06
2022-10-30T02:50:37.603Z,100756.81
2022-10-30T02:53:07.260Z,100768.66
2022-10-30T02:55:36.811Z,100758.34
2022-10-30T02:58:06.533Z,100765.25
2022-10-30T03:00:36.171Z,100770.72
2022-10-30T03:03:05.963Z,100760.34
2022-10-30T03:05:38.370Z,100762.28
2022-10-30T03:08:08.817Z,100760.47
2022-10-30T03:10:38.404Z,100761.41
2022-10-30T03:13:08.051Z,100761.41
2022-10-30T03:15:37.603Z,100769.41
2022-10-30T03:18:08.842Z,100773.16
2022-10-30T03:20:50.102Z,100776.34
2022-10-30T03:23:19.704Z,100773.06
2022-10-30T03:25:49.226Z,100770.81
2022-10-30T03:28:18.861Z,100765.03
2022-10-30T03:30:48.441Z,100761.44
2022-10-30T03:33:18.539Z,100774.22
2022-10-30T03:35:50.654Z,100775.69
2022-10-30T03:38:20.574Z,100779.50
2022-10-30T03:40:50.313Z,100789.66
2022-10-30T03:43:20.298Z,100790.28
2022-10-30T03:45:51.122Z,100778.63
2022-10-30T03:48:21.631Z,100789.88
2022-10-30T03:50:55.433Z,100789.63
2022-10-30T03:53:26.357Z,100785.75
2022-10-30T03:55:56.496Z,100782.75
2022-10-30T03:58:26.046Z,100780.34
2022-10-30T04:01:04.221Z,100788.66
2022-10-30T04:03:37.308Z,100792.19
2022-10-30T04:06:12.834Z,100787.63
2022-10-30T04:08:42.398Z,100781.78
2022-10-30T04:11:14.783Z,100784.72
2022-10-30T04:13:44.418Z,100795.47
2022-10-30T04:16:15.497Z,100796.81
2022-10-30T04:18:45.547Z,100800.06
2022-10-30T04:21:17.888Z,100799.31
2022-10-30T04:23:47.616Z,100803.19
2022-10-30T04:26:17.647Z,100799.19
2022-10-30T04:28:50.490Z,100805.47
2022-10-30T04:31:20.259Z,100809.34
2022-10-30T04:33:49.779Z,100805.91
2022-10-30T04:36:24.361Z,100803.06
2022-10-30T04:38:53.994Z,100806.00
2022-10-30T04:41:25.277Z,100801.16
2022-10-30T04:44:03.406Z,100800.56
2022-10-30T04:46:35.050Z,100805.41
2022-10-30T04:49:10.690Z,100811.09
2022-10-30T04:51:42.866Z,100812.50
2022-10-30T04:54:12.433Z,100810.13
2022-10-30T04:56:42.443Z,100810.97
2022-10-30T04:59:12.029Z,100805.84
2022-10-30T05:01:41.924Z,100809.06
2022-10-30T05:04:11.573Z,100802.19
2022-10-30T05:06:44.260Z,100784.81
2022-10-30T05:09:16.606Z,100793.38
2022-10-30T05:11:46.258Z,100785.47
2022-10-30T05:14:16.585Z,100775.28
2022-10-30T05:16:47.031Z,100780.88
2022-10-30T05:19:16.567Z,100776.22
2022-10-30T05:21:57.592Z,100784.50
2022-10-30T05:24:27.233Z,100780.94
2022-10-30T05:26:57.375Z,100776.81
2022-10-30T05:29:26.915Z,100782.41
2022-10-30T05:31:56.456Z,100774.25
2022-10-30T05:34:43.579Z,100774.34
2022-10-30T05:37:16.964Z,100766.72
2022-10-30T05:39:47.187Z,100765.88
2022-10-30T05:42:32.282Z,100768.56
2022-10-30T05:45:07.964Z,100771.59
2022-10-30T05:47:38.945Z,100772.69
2022-10-30T05:50:10.425Z,100772.09
2022-10-30T05:52:42.639Z,100771.13
2022-10-30T05:55:12.727Z,100766.84
2022-10-30T05:57:49.259Z,100759.31
2022-10-30T06:00:19.685Z,100752.63
2022-10-30T06:02:49.950Z,100757.47
2022-10-30T06:05:19.584Z,100761.31
2022-10-30T06:07:52.141Z,100764.91
2022-10-30T06:10:22.302Z,100762.41
2022-10-30T06:13:10.327Z,100770.53
2022-10-30T06:15:44.854Z,100764.56
2022-10-30T06:18:14.421Z,100763.00
2022-10-30T06:20:49.467Z,100788.00
2022-10-30T06:23:31.448Z,100791.75
2022-10-30T06:26:07.077Z,100791.56
2022-10-30T06:28:46.339Z,100799.25
2022-10-30T06:31:17.325Z,100796.00
2022-10-30T06:33:46.903Z,100800.44
2022-10-30T06:36:17.586Z,100803.09
2022-10-30T06:38:49.887Z,100802.41
2022-10-30T06:41:26.092Z,100803.34
2022-10-30T06:44:11.161Z,100798.28
2022-10-30T06:46:41.215Z,100806.25
2022-10-30T06:49:11.979Z,100797.53
2022-10-30T06:51:42.320Z,100797.44
2022-10-30T06:54:14.523Z,100797.44
2022-10-30T06:56:44.014Z,100805.25
2022-10-30T06:59:44.507Z,100801.59
2022-10-30T07:02:29.426Z,100799.91
2022-10-30T07:05:04.585Z,100800.81
2022-10-30T07:07:34.147Z,100801.91
2022-10-30T07:10:06.702Z,100809.97
2022-10-30T07:12:59.453Z,100805.59
2022-10-30T07:15:47.277Z,100806.53
2022-10-30T07:18:34.491Z,100807.63
2022-10-30T07:21:04.951Z,100810.50
2022-10-30T07:23:35.398Z,100808.38
2022-10-30T07:26:27.091Z,100800.84
2022-10-30T07:28:58.610Z,100806.31
2022-10-30T07:31:42.342Z,100811.69
2022-10-30T07:34:51.039Z,100795.81
2022-10-30T07:37:32.023Z,100804.69
2022-10-30T07:40:14.070Z,100801.09
2022-10-30T07:43:02.427Z,100807.34
2022-10-30T07:46:01.875Z,100801.94
2022-10-30T07:49:06.908Z,100804.13
2022-10-30T07:51:46.229Z,100803.44
2022-10-30T07:54:16.476Z,100809.34
2022-10-30T07:56:46.355Z,100803.13
2022-10-30T07:59:37.219Z,100800.47
2022-10-30T08:02:25.444Z,100805.69
2022-10-30T08:05:15.121Z,100804.75
2022-10-30T08:08:03.666Z,100801.94
2022-10-30T08:10:33.858Z,100794.84
2022-10-30T08:13:03.494Z,100790.41
2022-10-30T08:15:36.197Z,100787.44
2022-10-30T08:18:05.778Z,100791.72
2022-10-30T08:20:37.753Z,100793.13
2022-10-30T08:23:07.359Z,100796.31
2022-10-30T08:25:37.077Z,100796.13
2022-10-30T08:28:09.065Z,100793.25
2022-10-30T08:30:43.010Z,100795.72
2022-10-30T08:33:16.596Z,100794.38
2022-10-30T08:36:06.222Z,100786.94
2022-10-30T08:38:35.884Z,100794.16
2022-10-30T08:41:17.047Z,100788.88
2022-10-30T08:43:50.824Z,100785.28
2022-10-30T08:46:23.555Z,100786.81
2022-10-30T08:48:54.942Z,100782.75
2022-10-30T08:51:25.822Z,100779.53
2022-10-30T08:53:55.426Z,100772.47
2022-10-30T08:56:25.043Z,100767.47
2022-10-30T08:59:03.181Z,100767.00
2022-10-30T09:01:37.303Z,100770.25
2022-10-30T09:04:18.672Z,100771.34
2022-10-30T09:07:20.629Z,100768.00
2022-10-30T09:10:13.499Z,100770.47
2022-10-30T09:12:44.477Z,100772.00
2022-10-30T09:15:14.094Z,100768.94
2022-10-30T09:18:02.451Z,100767.66
2022-10-30T09:20:32.976Z,100759.13
2022-10-30T09:23:03.020Z,100765.25
2022-10-30T09:25:33.016Z,100764.59
2022-10-30T09:28:15.335Z,100762.97
2022-10-30T09:31:04.133Z,100755.22
2022-10-30T09:33:40.536Z,100750.19
2022-10-30T09:36:32.232Z,100749.09
2022-10-30T09:39:02.036Z,100745.06
2022-10-30T09:41:47.006Z,100730.34
2022-10-30T09:44:25.199Z,100737.69
2022-10-30T09:47:03.693Z,100729.91
2022-10-30T09:49:51.613Z,100729.28
2022-10-30T09:52:31.023Z,100726.84
2022-10-30T09:55:11.905Z,100732.63
2022-10-30T09:57:45.850Z,100730.28
2022-10-30T10:00:16.995Z,100738.25
2022-10-30T10:02:56.634Z,100737.06
2022-10-30T10:05:32.043Z,100735.59
2022-10-30T10:08:43.623Z,100729.56
2022-10-30T10:11:35.345Z,100730.28
2022-10-30T10:14:08.627Z,100721.03
2022-10-30T10:16:41.477Z,100732.47
2022-10-30T10:19:17.510Z,100727.09
2022-10-30T10:21:53.986Z,100727.91
2022-10-30T10:24:26.557Z,100733.03
2022-10-30T10:26:59.927Z,100733.81
2022-10-30T10:33:05.087Z,100728.72
2022-10-30T10:35:50.233Z,100719.50
2022-10-30T10:38:31.235Z,100724.16
2022-10-30T10:41:06.638Z,100723.66
2022-10-30T10:43:44.690Z,100720.50
2022-10-30T10:46:41.875Z,100722.59
2022-10-30T10:49:19.337Z,100712.97
2022-10-30T10:51:52.902Z,100712.75
2022-10-30T10:54:28.731Z,100714.31
2022-10-30T10:56:59.689Z,100710.88
2022-10-30T10:59:34.531Z,100709.13
2022-10-30T11:02:24.517Z,100700.22
2022-10-30T11:04:57.004Z,100705.78
2022-10-30T11:07:27.820Z,100699.44
2022-10-30T11:10:00.691Z,100697.81
2022-10-30T11:12:35.379Z,100698.59
2022-10-30T11:15:12.506Z,100689.06
2022-10-30T11:17:46.972Z,100696.09
2022-10-30T11:20:20.389Z,100688.94
2022-10-30T11:22:53.163Z,100687.94
2022-10-30T11:25:30.231Z,100679.53
2022-10-30T11:28:03.581Z,100678.00
2022-10-30T11:30:33.530Z,100678.44
2022-10-30T11:33:30.743Z,100678.06
2022-10-30T11:36:15.629Z,100679.25
2022-10-30T11:38:45.691Z,100680.69
2022-10-30T11:41:16.495Z,100685.22
2022-10-30T11:43:46.997Z,100681.16
2022-10-30T11:46:24.524Z,100679.34
2022-10-30T11:48:57.300Z,100672.28
2022-10-30T11:51:39.522Z,100673.81
2022-10-30T11:54:09.725Z,100663.25
2022-10-30T11:56:39.247Z,100662.31
2022-10-30T11:59:08.882Z,100663.56
2022-10-30T12:01:39.703Z,100664.88
2022-10-30T12:04:27.218Z,100667.84
2022-10-30T12:07:10.694Z,100665.44
2022-10-30T12:09:47.312Z,100660.78
2022-10-30T12:12:25.483Z,100669.25
2022-10-30T12:14:55.295Z,100666.72
2022-10-30T12:17:25.545Z,100657.41
2022-10-30T12:19:58.125Z,100661.75
2022-10-30T12:22:30.093Z,100660.50
2022-10-30T12:25:00.192Z,100663.91
2022-10-30T12:27:29.907Z,100660.81
2022-10-30T12:30:13.695Z,100662.66
2022-10-30T12:32:48.953Z,100660.94
2022-10-30T12:35:29.402Z,100659.66
2022-10-30T12:38:00.315Z,100658.69
2022-10-30T12:40:33.415Z,100667.88
2022-10-30T12:43:06.758Z,100669.56
2022-10-30T12:45:40.811Z,100665.63
2022-10-30T12:48:16.844Z,100662.81
2022-10-30T12:50:57.149Z,100669.56
2022-10-30T12:53:30.740Z,100667.19
2022-10-30T12:56:03.885Z,100664.94
2022-10-30T12:58:36.531Z,100662.94
2022-10-30T13:01:12.361Z,100668.72
2022-10-30T13:03:45.221Z,100669.56
2022-10-30T13:06:20.363Z,100661.66
2022-10-30T13:08:58.179Z,100658.13
2022-10-30T13:11:32.034Z,100654.47
2022-10-30T13:14:03.145Z,100657.13
2022-10-30T13:16:35.025Z,100658.00
2022-10-30T13:19:05.100Z,100652.75
2022-10-30T13:24:45.413Z,100646.13
2022-10-30T13:27:18.686Z,100645.69
2022-10-30T13:29:52.682Z,100647.25
2022-10-30T13:32:35.561Z,100645.00
2022-10-30T13:35:15.822Z,100650.94
2022-10-30T13:37:54.164Z,100645.25
2022-10-30T13:40:28.652Z,100645.25
2022-10-30T13:43:06.974Z,100641.56
2022-10-30T13:45:48.638Z,100636.22
2022-10-30T13:48:23.855Z,100643.56
2022-10-30T13:51:14.039Z,100647.78
2022-10-30T13:53:47.853Z,100645.09
2022-10-30T13:56:21.937Z,100653.16
2022-10-30T13:59:00.773Z,100643.00
2022-10-30T14:01:35.410Z,100646.41
2022-10-30T14:04:09.393Z,100649.78
2022-10-30T14:06:42.842Z,100650.38
2022-10-30T14:09:21.303Z,100644.69
2022-10-30T14:11:50.848Z,100655.75
2022-10-30T14:14:30.936Z,100662.22
2022-10-30T14:17:14.079Z,100658.81
2022-10-30T14:20:25.551Z,100661.34
2022-10-30T14:23:10.398Z,100657.13
2022-10-30T14:25:42.890Z,100661.03
2022-10-30T14:28:21.975Z,100661.34
2022-10-30T14:31:04.438Z,100667.94
2022-10-30T14:33:40.800Z,100664.28
2022-10-30T14:36:26.658Z,100659.72
2022-10-30T14:39:02.735Z,100657.19
2022-10-30T14:41:48.673Z,100658.88
2022-10-30T14:44:54.096Z,100651.38
2022-10-30T14:47:41.110Z,100643.31
2022-10-30T14:50:20.145Z,100640.22
2022-10-30T14:53:02.534Z,100636.69
2022-10-30T14:55:34.675Z,100647.66
2022-10-30T14:58:20.235Z,100646.09
2022-10-30T15:00:49.799Z,100646.25
2022-10-30T15:03:39.140Z,100648.22
2022-10-30T15:06:19.749Z,100645.09
2022-10-30T15:09:01.909Z,100639.25
2022-10-30T15:11:40.578Z,100648.41
2022-10-30T15:14:20.923Z,100653.22
2022-10-30T15:16:52.575Z,100651.47
2022-10-30T15:19:23.806Z,100653.97
2022-10-30T15:21:57.089Z,100647.19
2022-10-30T15:24:32.436Z,100650.88
2022-10-30T15:27:03.411Z,100649.44
2022-10-30T15:29:38.559Z,100645.91
2022-10-30T15:32:18.243Z,100651.41
2022-10-30T15:34:56.529Z,100645.56
2022-10-30T15:37:26.202Z,100650.94
2022-10-30T15:40:14.238Z,100647.41
2022-10-30T15:42:45.046Z,100657.56
2022-10-30T15:45:19.958Z,100659.78
2022-10-30T15:47:51.785Z,100666.53
2022-10-30T15:50:21.844Z,100671.56
2022-10-30T15:52:53.941Z,100675.75
2022-10-30T15:55:26.926Z,100682.09
2022-10-30T15:58:03.395Z,100683.56
2022-10-30T16:00:38.493Z,100686.19
2022-10-30T16:03:09.713Z,100686.78
2022-10-30T16:05:39.249Z,100698.28
2022-10-30T16:08:13.777Z,100696.81
2022-10-30T16:10:44.449Z,100705.13
2022-10-30T16:13:19.530Z,100705.25
2022-10-30T16:15:51.741Z,100715.25
2022-10-30T16:18:23.076Z,100713.34
2022-10-30T16:20:54.269Z,100718.84
2022-10-30T16:23:24.405Z,100726.63
2022-10-30T16:25:57.171Z,100728.41
2022-10-30T16:28:28.959Z,100730.84
2022-10-30T16:31:04.242Z,100726.59
2022-10-30T16:33:35.419Z,100735.22
2022-10-30T16:36:07.041Z,100739.69
2022-10-30T16:38:38.246Z,100746.97
2022-10-30T16:41:13.417Z,100738.44
2022-10-30T16:43:44.742Z,100743.78
2022-10-30T16:46:36.872Z,100741.16
2022-10-30T16:49:09.315Z,100739.72
2022-10-30T16:51:41.170Z,100744.16
2022-10-30T16:54:21.143Z,100755.38
2022-10-30T16:56:51.287Z,100758.41
2022-10-30T16:59:27.761Z,100773.38
2022-10-30T17:02:05.897Z,100774.06
2022-10-30T17:04:36.941Z,100782.84
2022-10-30T17:07:19.261Z,100788.91
2022-10-30T17:09:50.254Z,100789.66
2022-10-30T17:12:22.805Z,100794.44
2022-10-30T17:14:54.849Z,100802.31
2022-10-30T17:17:39.130Z,100797.84
2022-10-30T17:20:14.933Z,100807.47
2022-10-30T17:22:44.587Z,100807.47
2022-10-30T17:25:19.798Z,100805.84
2022-10-30T17:27:51.079Z,100812.16
2022-10-30T17:30:38.735Z,100810.69
2022-10-30T17:33:29.728Z,100813.81
2022-10-30T17:35:59.539Z,100819.47
2022-10-30T17:38:29.174Z,100821.53
2022-10-30T17:44:24.165Z,100843.75
2022-10-30T17:47:00.581Z,100840.34
2022-10-30T17:49:33.716Z,100835.44
2022-10-30T17:52:04.111Z,100843.56
2022-10-30T17:54:33.922Z,100851.88
2022-10-30T17:57:03.533Z,100855.41
2022-10-30T17:59:33.134Z,100856.38
2022-10-30T18:02:02.831Z,100868.03
2022-10-30T18:04:35.147Z,100862.91
2022-10-30T18:07:04.704Z,100868.34
2022-10-30T18:09:34.270Z,100866.63
2022-10-30T18:12:03.886Z,100864.31
2022-10-30T18:14:33.614Z,100876.69
2022-10-30T18:17:03.139Z,100881.38
2022-10-30T18:19:35.485Z,100887.25
2022-10-30T18:22:05.173Z,100878.00
2022-10-30T18:24:34.737Z,100883.09
2022-10-30T18:27:04.346Z,100881.78
2022-10-30T18:29:33.890Z,100885.28
2022-10-30T18:32:09.217Z,100882.59
2022-10-30T18:34:41.832Z,100885.69
2022-10-30T18:37:11.704Z,100883.56
2022-10-30T18:39:41.238Z,100873.94
2022-10-30T18:42:11.895Z,100868.53
2022-10-30T18:44:41.642Z,100873.41
2022-10-30T18:47:13.277Z,100888.38
2022-10-30T18:49:45.607Z,100892.94
2022-10-30T18:52:15.122Z,100904.97
2022-10-30T18:54:44.661Z,100900.06
2022-10-30T18:57:14.154Z,100905.56
2022-10-30T18:59:43.718Z,100903.97
2022-10-30T19:02:19.905Z,100898.19
2022-10-30T19:04:52.111Z,100901.25
2022-10-30T19:07:21.643Z,100905.31
2022-10-30T19:09:51.536Z,100917.88
2022-10-30T19:12:21.120Z,100920.28
2022-10-30T19:14:50.774Z,100916.13
2022-10-30T19:17:20.292Z,100920.22
2022-10-30T19:19:52.376Z,100918.81
2022-10-30T19:22:21.883Z,100919.16
2022-10-30T19:24:51.423Z,100922.22
2022-10-30T19:27:22.534Z,100927.75
2022-10-30T19:29:52.048Z,100918.44
2022-10-30T19:32:21.555Z,100918.63
2022-10-30T19:34:53.685Z,100931.28
2022-10-30T19:37:23.293Z,100931.38
2022-10-30T19:39:52.951Z,100942.22
2022-10-30T19:42:22.503Z,100951.34
2022-10-30T19:44:52.223Z,100958.09
2022-10-30T19:47:21.889Z,100958.19
2022-10-30T19:49:54.182Z,100949.53
2022-10-30T19:52:28.232Z,100953.44
2022-10-30T19:54:58.890Z,100959.72
2022-10-30T19:57:31.467Z,100963.59
2022-10-30T20:00:13.218Z,100967.31
2022-10-30T20:02:42.912Z,100959.50
2022-10-30T20:05:17.189Z,100959.69
2022-10-30T20:07:46.755Z,100964.22
2022-10-30T20:10:21.634Z,100956.44
2022-10-30T20:15:23.322Z,100971.44
2022-10-30T20:17:53.184Z,100972.50
2022-10-30T20:20:28.421Z,100975.25
2022-10-30T20:22:58.193Z,100983.25
2022-10-30T20:25:29.555Z,100979.88
2022-10-30T20:28:05.838Z,100984.25
2022-10-30T20:30:36.651Z,100985.22
2022-10-30T20:33:06.299Z,100984.56
2022-10-30T20:35:38.966Z,100981.13
2022-10-30T20:38:08.828Z,100983.09
2022-10-30T20:40:38.484Z,100983.09
2022-10-30T20:43:08.070Z,100986.81
2022-10-30T20:45:37.759Z,100995.75
2022-10-30T20:48:07.458Z,101001.31
2022-10-30T20:50:40.007Z,101002.69
2022-10-30T20:53:13.881Z,100989.56
2022-10-30T20:55:43.666Z,100998.66
2022-10-30T20:58:13.303Z,101006.06
2022-10-30T21:00:43.155Z,101004.69
2022-10-30T21:03:14.383Z,101004.94
2022-10-30T21:05:47.441Z,101006.34
2022-10-30T21:08:17.425Z,101014.66
2022-10-30T21:10:46.931Z,101020.31
2022-10-30T21:13:16.529Z,101011.75
2022-10-30T21:15:47.148Z,101027.84
2022-10-30T21:18:16.752Z,101030.97
2022-10-30T21:20:49.043Z,101031.97
2022-10-30T21:23:18.568Z,101033.09
2022-10-30T21:25:48.222Z,101029.56
2022-10-30T21:28:17.737Z,101026.22
2022-10-30T21:30:47.351Z,101034.28
2022-10-30T21:33:16.875Z,101031.00
2022-10-30T21:35:49.049Z,101035.53
2022-10-30T21:38:18.564Z,101041.91
2022-10-30T21:40:48.115Z,101038.63
2022-10-30T21:43:17.823Z,101048.47
2022-10-30T21:45:47.568Z,101046.00
2022-10-30T21:48:17.111Z,101043.47
2022-10-30T21:50:49.341Z,101033.97
2022-10-30T21:53:18.892Z,101052.63
2022-10-30T21:55:48.451Z,101049.28
2022-10-30T21:58:17.976Z,101047.66
2022-10-30T22:00:47.551Z,101057.56
2022-10-30T22:03:17.144Z,101061.41
2022-10-30T22:05:49.266Z,101065.81
2022-10-30T22:08:20.109Z,101064.09
2022-10-30T22:10:49.678Z,101076.50
2022-10-30T22:13:19.327Z,101069.75
2022-10-30T22:15:56.985Z,101072.53
2022-10-30T22:18:26.934Z,101079.75
2022-10-30T22:21:06.129Z,101074.66
2022-10-30T22:23:36.462Z,101078.97
2022-10-30T22:26:07.436Z,101072.84
2022-10-30T22:28:37.793Z,101076.84
2022-10-30T22:31:08.691Z,101085.81
2022-10-30T22:33:39.017Z,101089.34
2022-10-30T22:36:16.627Z,101088.47
2022-10-30T22:38:46.362Z,101088.56
2022-10-30T22:41:17.644Z,101100.63
2022-10-30T22:43:48.637Z,101100.59
2022-10-30T22:46:19.331Z,101107.81
2022-10-30T22:48:49.060Z,101105.25
2022-10-30T22:51:22.266Z,101111.56
2022-10-30T22:53:58.290Z,101118.81
2022-10-30T22:56:30.509Z,101117.94
2022-10-30T22:59:00.675Z,101113.41
2022-10-30T23:01:31.658Z,101112.81
2022-10-30T23:04:03.020Z,101119.19
2022-10-30T23:06:36.825Z,101113.03
2022-10-30T23:09:08.615Z,101105.06
2022-10-30T23:11:38.410Z,101113.03
2022-10-30T23:14:08.025Z,101106.16
2022-10-30T23:16:37.577Z,101101.81
2022-10-30T23:19:07.163Z,101109.03
2022-10-30T23:21:39.390Z,101102.94
2022-10-30T23:24:09.882Z,101111.97
2022-10-30T23:26:39.735Z,101113.84
2022-10-30T23:29:09.340Z,101110.41
2022-10-30T23:31:40.436Z,101113.16
2022-10-30T23:34:12.333Z,101119.16
2022-10-30T23:36:45.314Z,101117.53
2022-10-30T23:39:17.386Z,101119.31
2022-10-30T23:41:47.077Z,101127.09
2022-10-30T23:44:18.119Z,101128.75
2022-10-30T23:46:48.007Z,101126.94
2022-10-30T23:49:17.539Z,101126.81
2022-10-30T23:51:49.766Z,101123.38
2022-10-30T23:54:19.380Z,101122.44
2022-10-30T23:56:48.935Z,101124.25
2022-10-30T23:59:18.438Z,101126.94
